sensor_id;sensor_type;location;lat;lon;timestamp;P1;durP1;ratioP1;P2;durP2;ratioP2
69714;SDS011;56981;53.532;49.398;2023-11-22T00:01:51;4.90;;;2.50;;
69714;SDS011;56981;53.532;49.398;2023-11-22T00:04:18;3.47;;;2.10;;
69714;SDS011;56981;53.532;49.398;2023-11-22T00:06:45;4.20;;;2.42;;
69714;SDS011;56981;53.532;49.398;2023-11-22T00:09:11;3.20;;;1.98;;
69714;SDS011;56981;53.532;49.398;2023-11-22T00:11:37;5.55;;;2.47;;
69714;SDS011;56981;53.532;49.398;2023-11-22T00:14:04;4.93;;;2.33;;
69714;SDS011;56981;53.532;49.398;2023-11-22T00:16:30;4.65;;;2.90;;
69714;SDS011;56981;53.532;49.398;2023-11-22T00:18:56;4.80;;;3.17;;
69714;SDS011;56981;53.532;49.398;2023-11-22T00:21:22;7.50;;;1.92;;
69714;SDS011;56981;53.532;49.398;2023-11-22T00:23:48;4.28;;;2.97;;
69714;SDS011;56981;53.532;49.398;2023-11-22T00:26:14;4.07;;;2.33;;
69714;SDS011;56981;53.532;49.398;2023-11-22T00:28:40;2.83;;;1.77;;
69714;SDS011;56981;53.532;49.398;2023-11-22T00:31:06;2.67;;;2.30;;
69714;SDS011;56981;53.532;49.398;2023-11-22T00:33:33;3.75;;;2.20;;
69714;SDS011;56981;53.532;49.398;2023-11-22T00:36:00;4.70;;;2.22;;
69714;SDS011;56981;53.532;49.398;2023-11-22T00:38:29;5.22;;;2.67;;
69714;SDS011;56981;53.532;49.398;2023-11-22T00:40:55;3.20;;;2.13;;
69714;SDS011;56981;53.532;49.398;2023-11-22T00:43:22;4.70;;;2.95;;
69714;SDS011;56981;53.532;49.398;2023-11-22T00:45:48;3.15;;;2.20;;
69714;SDS011;56981;53.532;49.398;2023-11-22T00:48:14;3.67;;;2.47;;
69714;SDS011;56981;53.532;49.398;2023-11-22T00:50:40;4.03;;;2.58;;
69714;SDS011;56981;53.532;49.398;2023-11-22T00:53:06;2.90;;;1.85;;
69714;SDS011;56981;53.532;49.398;2023-11-22T00:55:32;5.05;;;3.30;;
69714;SDS011;56981;53.532;49.398;2023-11-22T00:57:59;3.80;;;2.00;;
69714;SDS011;56981;53.532;49.398;2023-11-22T01:00:30;5.65;;;3.30;;
69714;SDS011;56981;53.532;49.398;2023-11-22T01:02:56;4.75;;;1.83;;
69714;SDS011;56981;53.532;49.398;2023-11-22T01:05:24;2.60;;;1.60;;
69714;SDS011;56981;53.532;49.398;2023-11-22T01:07:50;4.75;;;2.28;;
69714;SDS011;56981;53.532;49.398;2023-11-22T01:10:16;5.05;;;2.72;;
69714;SDS011;56981;53.532;49.398;2023-11-22T01:12:42;4.55;;;2.40;;
69714;SDS011;56981;53.532;49.398;2023-11-22T01:15:09;4.30;;;3.08;;
69714;SDS011;56981;53.532;49.398;2023-11-22T01:17:36;3.78;;;2.25;;
69714;SDS011;56981;53.532;49.398;2023-11-22T01:20:02;5.55;;;2.38;;
69714;SDS011;56981;53.532;49.398;2023-11-22T01:22:29;3.80;;;2.45;;
69714;SDS011;56981;53.532;49.398;2023-11-22T01:24:56;4.53;;;2.10;;
69714;SDS011;56981;53.532;49.398;2023-11-22T01:27:22;3.30;;;2.15;;
69714;SDS011;56981;53.532;49.398;2023-11-22T01:29:49;5.20;;;2.85;;
69714;SDS011;56981;53.532;49.398;2023-11-22T01:32:16;3.53;;;2.13;;
69714;SDS011;56981;53.532;49.398;2023-11-22T01:34:42;3.15;;;2.13;;
69714;SDS011;56981;53.532;49.398;2023-11-22T01:37:09;5.60;;;3.25;;
69714;SDS011;56981;53.532;49.398;2023-11-22T01:39:35;5.22;;;2.95;;
69714;SDS011;56981;53.532;49.398;2023-11-22T01:42:05;2.70;;;1.77;;
69714;SDS011;56981;53.532;49.398;2023-11-22T01:44:32;5.32;;;2.92;;
69714;SDS011;56981;53.532;49.398;2023-11-22T01:46:58;3.50;;;2.10;;
69714;SDS011;56981;53.532;49.398;2023-11-22T01:49:24;3.83;;;2.05;;
69714;SDS011;56981;53.532;49.398;2023-11-22T01:51:50;3.38;;;1.92;;
69714;SDS011;56981;53.532;49.398;2023-11-22T01:54:17;4.88;;;2.58;;
69714;SDS011;56981;53.532;49.398;2023-11-22T01:56:45;2.75;;;2.38;;
69714;SDS011;56981;53.532;49.398;2023-11-22T01:59:11;7.93;;;2.53;;
69714;SDS011;56981;53.532;49.398;2023-11-22T02:01:40;3.50;;;2.15;;
69714;SDS011;56981;53.532;49.398;2023-11-22T02:04:07;3.53;;;1.95;;
69714;SDS011;56981;53.532;49.398;2023-11-22T02:06:35;4.68;;;2.75;;
69714;SDS011;56981;53.532;49.398;2023-11-22T02:09:02;3.30;;;1.95;;
69714;SDS011;56981;53.532;49.398;2023-11-22T02:11:28;3.08;;;2.03;;
69714;SDS011;56981;53.532;49.398;2023-11-22T02:13:55;2.63;;;2.13;;
69714;SDS011;56981;53.532;49.398;2023-11-22T02:16:21;3.17;;;1.65;;
69714;SDS011;56981;53.532;49.398;2023-11-22T02:18:47;2.95;;;1.85;;
69714;SDS011;56981;53.532;49.398;2023-11-22T02:21:15;4.20;;;1.92;;
69714;SDS011;56981;53.532;49.398;2023-11-22T02:23:42;2.47;;;1.77;;
69714;SDS011;56981;53.532;49.398;2023-11-22T02:26:09;3.13;;;1.55;;
69714;SDS011;56981;53.532;49.398;2023-11-22T02:28:36;2.63;;;1.98;;
69714;SDS011;56981;53.532;49.398;2023-11-22T02:31:02;1.75;;;1.65;;
69714;SDS011;56981;53.532;49.398;2023-11-22T02:33:28;4.60;;;2.55;;
69714;SDS011;56981;53.532;49.398;2023-11-22T02:35:55;3.30;;;1.90;;
69714;SDS011;56981;53.532;49.398;2023-11-22T02:38:22;6.28;;;2.08;;
69714;SDS011;56981;53.532;49.398;2023-11-22T02:40:48;2.72;;;1.55;;
69714;SDS011;56981;53.532;49.398;2023-11-22T02:43:16;5.10;;;2.25;;
69714;SDS011;56981;53.532;49.398;2023-11-22T02:45:43;2.97;;;1.88;;
69714;SDS011;56981;53.532;49.398;2023-11-22T02:48:09;5.63;;;2.20;;
69714;SDS011;56981;53.532;49.398;2023-11-22T02:50:35;2.00;;;1.90;;
69714;SDS011;56981;53.532;49.398;2023-11-22T02:53:05;2.40;;;1.52;;
69714;SDS011;56981;53.532;49.398;2023-11-22T02:55:31;4.60;;;2.65;;
69714;SDS011;56981;53.532;49.398;2023-11-22T02:57:57;3.90;;;2.45;;
69714;SDS011;56981;53.532;49.398;2023-11-22T03:00:22;6.07;;;1.85;;
69714;SDS011;56981;53.532;49.398;2023-11-22T03:02:50;2.75;;;1.83;;
69714;SDS011;56981;53.532;49.398;2023-11-22T03:05:20;5.05;;;2.05;;
69714;SDS011;56981;53.532;49.398;2023-11-22T03:07:46;4.78;;;2.50;;
69714;SDS011;56981;53.532;49.398;2023-11-22T03:10:12;3.83;;;2.30;;
69714;SDS011;56981;53.532;49.398;2023-11-22T03:12:38;4.95;;;2.67;;
69714;SDS011;56981;53.532;49.398;2023-11-22T03:15:05;4.13;;;2.13;;
69714;SDS011;56981;53.532;49.398;2023-11-22T03:17:31;4.40;;;2.55;;
69714;SDS011;56981;53.532;49.398;2023-11-22T03:20:00;4.70;;;2.63;;
69714;SDS011;56981;53.532;49.398;2023-11-22T03:22:26;5.47;;;2.45;;
69714;SDS011;56981;53.532;49.398;2023-11-22T03:24:56;4.53;;;2.83;;
69714;SDS011;56981;53.532;49.398;2023-11-22T03:27:24;6.05;;;2.70;;
69714;SDS011;56981;53.532;49.398;2023-11-22T03:29:52;3.08;;;2.50;;
69714;SDS011;56981;53.532;49.398;2023-11-22T03:32:18;6.07;;;3.95;;
69714;SDS011;56981;53.532;49.398;2023-11-22T03:34:44;2.88;;;2.25;;
69714;SDS011;56981;53.532;49.398;2023-11-22T03:37:10;4.68;;;2.67;;
69714;SDS011;56981;53.532;49.398;2023-11-22T03:39:37;7.10;;;3.42;;
69714;SDS011;56981;53.532;49.398;2023-11-22T03:42:03;6.00;;;2.53;;
69714;SDS011;56981;53.532;49.398;2023-11-22T03:44:29;3.90;;;2.83;;
69714;SDS011;56981;53.532;49.398;2023-11-22T03:46:55;3.90;;;2.60;;
69714;SDS011;56981;53.532;49.398;2023-11-22T03:49:21;2.55;;;1.73;;
69714;SDS011;56981;53.532;49.398;2023-11-22T03:51:48;5.38;;;2.75;;
69714;SDS011;56981;53.532;49.398;2023-11-22T03:54:14;3.85;;;1.98;;
69714;SDS011;56981;53.532;49.398;2023-11-22T03:56:40;2.70;;;1.67;;
69714;SDS011;56981;53.532;49.398;2023-11-22T03:59:06;2.92;;;2.30;;
69714;SDS011;56981;53.532;49.398;2023-11-22T04:01:32;4.60;;;3.35;;
69714;SDS011;56981;53.532;49.398;2023-11-22T04:03:58;4.38;;;2.42;;
69714;SDS011;56981;53.532;49.398;2023-11-22T04:06:24;4.22;;;2.42;;
69714;SDS011;56981;53.532;49.398;2023-11-22T04:08:50;7.30;;;3.03;;
69714;SDS011;56981;53.532;49.398;2023-11-22T04:11:18;5.28;;;3.03;;
69714;SDS011;56981;53.532;49.398;2023-11-22T04:13:45;4.18;;;2.65;;
69714;SDS011;56981;53.532;49.398;2023-11-22T04:16:13;6.00;;;2.83;;
69714;SDS011;56981;53.532;49.398;2023-11-22T04:18:40;5.85;;;2.60;;
69714;SDS011;56981;53.532;49.398;2023-11-22T04:21:07;3.75;;;2.75;;
69714;SDS011;56981;53.532;49.398;2023-11-22T04:23:34;3.65;;;1.95;;
69714;SDS011;56981;53.532;49.398;2023-11-22T04:26:00;4.65;;;2.72;;
69714;SDS011;56981;53.532;49.398;2023-11-22T04:28:27;6.82;;;3.75;;
69714;SDS011;56981;53.532;49.398;2023-11-22T04:30:55;5.40;;;3.15;;
69714;SDS011;56981;53.532;49.398;2023-11-22T04:33:22;4.45;;;2.38;;
69714;SDS011;56981;53.532;49.398;2023-11-22T04:35:49;2.15;;;1.52;;
69714;SDS011;56981;53.532;49.398;2023-11-22T04:38:15;3.13;;;1.92;;
69714;SDS011;56981;53.532;49.398;2023-11-22T04:40:41;2.58;;;2.03;;
69714;SDS011;56981;53.532;49.398;2023-11-22T04:43:10;5.22;;;2.22;;
69714;SDS011;56981;53.532;49.398;2023-11-22T04:45:37;2.88;;;2.15;;
69714;SDS011;56981;53.532;49.398;2023-11-22T04:48:04;4.47;;;2.33;;
69714;SDS011;56981;53.532;49.398;2023-11-22T04:50:32;7.45;;;2.67;;
69714;SDS011;56981;53.532;49.398;2023-11-22T04:52:58;6.97;;;3.42;;
69714;SDS011;56981;53.532;49.398;2023-11-22T04:55:27;4.72;;;3.20;;
69714;SDS011;56981;53.532;49.398;2023-11-22T04:57:54;3.28;;;2.33;;
69714;SDS011;56981;53.532;49.398;2023-11-22T05:00:21;2.67;;;2.03;;
69714;SDS011;56981;53.532;49.398;2023-11-22T05:02:48;5.45;;;3.10;;
69714;SDS011;56981;53.532;49.398;2023-11-22T05:05:14;8.05;;;7.15;;
69714;SDS011;56981;53.532;49.398;2023-11-22T05:07:40;4.28;;;2.53;;
69714;SDS011;56981;53.532;49.398;2023-11-22T05:10:06;3.47;;;2.38;;
69714;SDS011;56981;53.532;49.398;2023-11-22T05:12:34;6.40;;;2.78;;
69714;SDS011;56981;53.532;49.398;2023-11-22T05:15:01;4.50;;;3.10;;
69714;SDS011;56981;53.532;49.398;2023-11-22T05:17:27;8.98;;;4.10;;
69714;SDS011;56981;53.532;49.398;2023-11-22T05:19:53;5.53;;;3.85;;
69714;SDS011;56981;53.532;49.398;2023-11-22T05:22:19;6.25;;;3.15;;
69714;SDS011;56981;53.532;49.398;2023-11-22T05:24:48;8.05;;;4.05;;
69714;SDS011;56981;53.532;49.398;2023-11-22T05:27:15;3.85;;;2.20;;
69714;SDS011;56981;53.532;49.398;2023-11-22T05:29:41;6.07;;;3.50;;
69714;SDS011;56981;53.532;49.398;2023-11-22T05:32:08;5.80;;;3.33;;
69714;SDS011;56981;53.532;49.398;2023-11-22T05:34:34;8.20;;;2.80;;
69714;SDS011;56981;53.532;49.398;2023-11-22T05:37:00;3.75;;;2.30;;
69714;SDS011;56981;53.532;49.398;2023-11-22T05:39:26;8.82;;;4.50;;
69714;SDS011;56981;53.532;49.398;2023-11-22T05:41:52;7.43;;;4.30;;
69714;SDS011;56981;53.532;49.398;2023-11-22T05:44:19;9.75;;;4.43;;
69714;SDS011;56981;53.532;49.398;2023-11-22T05:46:45;4.90;;;3.17;;
69714;SDS011;56981;53.532;49.398;2023-11-22T05:49:12;6.78;;;3.85;;
69714;SDS011;56981;53.532;49.398;2023-11-22T05:51:38;10.07;;;6.05;;
69714;SDS011;56981;53.532;49.398;2023-11-22T05:54:04;10.25;;;5.40;;
69714;SDS011;56981;53.532;49.398;2023-11-22T05:56:30;10.32;;;4.97;;
69714;SDS011;56981;53.532;49.398;2023-11-22T05:58:56;9.68;;;5.78;;
69714;SDS011;56981;53.532;49.398;2023-11-22T06:01:23;8.27;;;4.28;;
69714;SDS011;56981;53.532;49.398;2023-11-22T06:03:51;9.90;;;4.63;;
69714;SDS011;56981;53.532;49.398;2023-11-22T06:06:18;10.07;;;4.68;;
69714;SDS011;56981;53.532;49.398;2023-11-22T06:08:47;6.13;;;3.67;;
69714;SDS011;56981;53.532;49.398;2023-11-22T06:11:14;13.05;;;5.55;;
69714;SDS011;56981;53.532;49.398;2023-11-22T06:13:41;12.05;;;5.97;;
69714;SDS011;56981;53.532;49.398;2023-11-22T06:16:13;15.10;;;6.65;;
69714;SDS011;56981;53.532;49.398;2023-11-22T06:18:39;13.00;;;5.55;;
69714;SDS011;56981;53.532;49.398;2023-11-22T06:21:06;13.35;;;7.05;;
69714;SDS011;56981;53.532;49.398;2023-11-22T06:23:33;11.52;;;6.55;;
69714;SDS011;56981;53.532;49.398;2023-11-22T06:26:02;10.13;;;5.40;;
69714;SDS011;56981;53.532;49.398;2023-11-22T06:28:28;10.93;;;6.30;;
69714;SDS011;56981;53.532;49.398;2023-11-22T06:30:54;12.20;;;6.15;;
69714;SDS011;56981;53.532;49.398;2023-11-22T06:33:21;10.10;;;5.13;;
69714;SDS011;56981;53.532;49.398;2023-11-22T06:35:47;11.45;;;6.05;;
69714;SDS011;56981;53.532;49.398;2023-11-22T06:38:13;9.50;;;4.93;;
69714;SDS011;56981;53.532;49.398;2023-11-22T06:40:39;9.73;;;5.45;;
69714;SDS011;56981;53.532;49.398;2023-11-22T06:43:05;8.68;;;3.55;;
69714;SDS011;56981;53.532;49.398;2023-11-22T06:45:31;12.15;;;6.13;;
69714;SDS011;56981;53.532;49.398;2023-11-22T06:47:59;12.38;;;6.13;;
69714;SDS011;56981;53.532;49.398;2023-11-22T06:50:26;13.00;;;6.78;;
69714;SDS011;56981;53.532;49.398;2023-11-22T06:52:53;9.43;;;5.15;;
69714;SDS011;56981;53.532;49.398;2023-11-22T06:55:20;10.15;;;5.65;;
69714;SDS011;56981;53.532;49.398;2023-11-22T06:57:46;7.18;;;4.50;;
69714;SDS011;56981;53.532;49.398;2023-11-22T07:00:13;8.15;;;4.07;;
69714;SDS011;56981;53.532;49.398;2023-11-22T07:02:40;7.10;;;3.63;;
69714;SDS011;56981;53.532;49.398;2023-11-22T07:05:07;10.27;;;5.28;;
69714;SDS011;56981;53.532;49.398;2023-11-22T07:07:36;8.73;;;4.80;;
69714;SDS011;56981;53.532;49.398;2023-11-22T07:10:04;13.38;;;6.28;;
69714;SDS011;56981;53.532;49.398;2023-11-22T07:12:32;13.13;;;4.82;;
69714;SDS011;56981;53.532;49.398;2023-11-22T07:15:01;9.23;;;4.65;;
69714;SDS011;56981;53.532;49.398;2023-11-22T07:17:28;8.70;;;4.43;;
69714;SDS011;56981;53.532;49.398;2023-11-22T07:19:55;4.95;;;2.45;;
69714;SDS011;56981;53.532;49.398;2023-11-22T07:22:21;6.93;;;3.28;;
69714;SDS011;56981;53.532;49.398;2023-11-22T07:24:49;11.00;;;5.72;;
69714;SDS011;56981;53.532;49.398;2023-11-22T07:27:28;3.83;;;2.88;;
69714;SDS011;56981;53.532;49.398;2023-11-22T07:29:54;9.25;;;5.10;;
69714;SDS011;56981;53.532;49.398;2023-11-22T07:32:20;9.45;;;5.20;;
69714;SDS011;56981;53.532;49.398;2023-11-22T07:34:48;7.65;;;4.22;;
69714;SDS011;56981;53.532;49.398;2023-11-22T07:37:15;9.13;;;4.18;;
69714;SDS011;56981;53.532;49.398;2023-11-22T07:39:42;6.88;;;3.55;;
69714;SDS011;56981;53.532;49.398;2023-11-22T07:42:09;6.78;;;3.15;;
69714;SDS011;56981;53.532;49.398;2023-11-22T07:44:35;7.15;;;4.28;;
69714;SDS011;56981;53.532;49.398;2023-11-22T07:47:03;9.70;;;4.72;;
69714;SDS011;56981;53.532;49.398;2023-11-22T07:49:34;6.55;;;3.72;;
69714;SDS011;56981;53.532;49.398;2023-11-22T07:52:04;6.55;;;3.35;;
69714;SDS011;56981;53.532;49.398;2023-11-22T07:54:32;7.90;;;3.25;;
69714;SDS011;56981;53.532;49.398;2023-11-22T07:56:58;7.50;;;4.45;;
69714;SDS011;56981;53.532;49.398;2023-11-22T07:59:24;5.68;;;3.47;;
69714;SDS011;56981;53.532;49.398;2023-11-22T08:01:51;4.97;;;3.47;;
69714;SDS011;56981;53.532;49.398;2023-11-22T08:04:19;10.18;;;4.13;;
69714;SDS011;56981;53.532;49.398;2023-11-22T08:06:45;6.82;;;3.92;;
69714;SDS011;56981;53.532;49.398;2023-11-22T08:09:11;6.78;;;4.18;;
69714;SDS011;56981;53.532;49.398;2023-11-22T08:11:37;7.20;;;3.22;;
69714;SDS011;56981;53.532;49.398;2023-11-22T08:14:04;7.90;;;5.18;;
69714;SDS011;56981;53.532;49.398;2023-11-22T08:16:31;6.25;;;3.85;;
69714;SDS011;56981;53.532;49.398;2023-11-22T08:18:58;4.32;;;2.63;;
69714;SDS011;56981;53.532;49.398;2023-11-22T08:21:23;6.93;;;3.20;;
69714;SDS011;56981;53.532;49.398;2023-11-22T08:23:50;5.72;;;3.00;;
69714;SDS011;56981;53.532;49.398;2023-11-22T08:26:16;7.30;;;3.85;;
69714;SDS011;56981;53.532;49.398;2023-11-22T08:28:42;8.55;;;4.35;;
69714;SDS011;56981;53.532;49.398;2023-11-22T08:31:08;6.80;;;3.33;;
69714;SDS011;56981;53.532;49.398;2023-11-22T08:33:37;8.00;;;4.22;;
69714;SDS011;56981;53.532;49.398;2023-11-22T08:36:08;5.93;;;3.72;;
69714;SDS011;56981;53.532;49.398;2023-11-22T08:38:35;5.75;;;3.00;;
69714;SDS011;56981;53.532;49.398;2023-11-22T08:41:04;7.20;;;4.03;;
69714;SDS011;56981;53.532;49.398;2023-11-22T08:43:37;7.95;;;3.75;;
69714;SDS011;56981;53.532;49.398;2023-11-22T08:46:03;5.18;;;3.13;;
69714;SDS011;56981;53.532;49.398;2023-11-22T08:48:32;6.40;;;3.78;;
69714;SDS011;56981;53.532;49.398;2023-11-22T08:50:59;4.93;;;2.83;;
69714;SDS011;56981;53.532;49.398;2023-11-22T08:53:27;7.35;;;3.50;;
69714;SDS011;56981;53.532;49.398;2023-11-22T08:55:56;5.63;;;3.58;;
69714;SDS011;56981;53.532;49.398;2023-11-22T08:58:22;6.35;;;4.35;;
69714;SDS011;56981;53.532;49.398;2023-11-22T09:00:49;6.18;;;3.30;;
69714;SDS011;56981;53.532;49.398;2023-11-22T09:03:15;8.25;;;3.80;;
69714;SDS011;56981;53.532;49.398;2023-11-22T09:05:43;6.28;;;3.90;;
69714;SDS011;56981;53.532;49.398;2023-11-22T09:08:09;9.85;;;4.03;;
69714;SDS011;56981;53.532;49.398;2023-11-22T09:10:39;6.90;;;5.10;;
69714;SDS011;56981;53.532;49.398;2023-11-22T09:13:07;4.93;;;3.25;;
69714;SDS011;56981;53.532;49.398;2023-11-22T09:15:34;4.10;;;2.90;;
69714;SDS011;56981;53.532;49.398;2023-11-22T09:18:01;6.53;;;3.10;;
69714;SDS011;56981;53.532;49.398;2023-11-22T09:20:28;4.78;;;3.20;;
69714;SDS011;56981;53.532;49.398;2023-11-22T09:22:54;4.20;;;2.38;;
69714;SDS011;56981;53.532;49.398;2023-11-22T09:25:21;5.85;;;3.35;;
69714;SDS011;56981;53.532;49.398;2023-11-22T09:27:50;4.65;;;3.00;;
69714;SDS011;56981;53.532;49.398;2023-11-22T09:30:22;8.48;;;4.15;;
69714;SDS011;56981;53.532;49.398;2023-11-22T09:32:58;6.13;;;3.67;;
69714;SDS011;56981;53.532;49.398;2023-11-22T09:35:25;6.47;;;3.83;;
69714;SDS011;56981;53.532;49.398;2023-11-22T09:37:52;8.27;;;4.10;;
69714;SDS011;56981;53.532;49.398;2023-11-22T09:40:18;6.53;;;4.38;;
69714;SDS011;56981;53.532;49.398;2023-11-22T09:42:44;7.35;;;4.15;;
69714;SDS011;56981;53.532;49.398;2023-11-22T09:45:20;6.00;;;4.25;;
69714;SDS011;56981;53.532;49.398;2023-11-22T09:47:46;7.03;;;3.50;;
69714;SDS011;56981;53.532;49.398;2023-11-22T09:50:14;4.90;;;3.08;;
69714;SDS011;56981;53.532;49.398;2023-11-22T09:52:49;7.25;;;2.88;;
69714;SDS011;56981;53.532;49.398;2023-11-22T09:55:19;6.68;;;3.45;;
69714;SDS011;56981;53.532;49.398;2023-11-22T09:57:50;7.50;;;2.63;;
69714;SDS011;56981;53.532;49.398;2023-11-22T10:00:16;6.22;;;3.70;;
69714;SDS011;56981;53.532;49.398;2023-11-22T10:02:44;6.22;;;2.58;;
69714;SDS011;56981;53.532;49.398;2023-11-22T10:05:10;5.75;;;3.40;;
69714;SDS011;56981;53.532;49.398;2023-11-22T10:07:37;8.73;;;3.67;;
69714;SDS011;56981;53.532;49.398;2023-11-22T10:10:04;5.72;;;3.17;;
69714;SDS011;56981;53.532;49.398;2023-11-22T10:12:32;9.00;;;3.83;;
69714;SDS011;56981;53.532;49.398;2023-11-22T10:15:11;7.03;;;3.90;;
69714;SDS011;56981;53.532;49.398;2023-11-22T10:17:38;3.42;;;2.53;;
69714;SDS011;56981;53.532;49.398;2023-11-22T10:20:04;7.07;;;3.55;;
69714;SDS011;56981;53.532;49.398;2023-11-22T10:22:45;3.85;;;2.47;;
69714;SDS011;56981;53.532;49.398;2023-11-22T10:25:15;8.73;;;3.45;;
69714;SDS011;56981;53.532;49.398;2023-11-22T10:27:45;3.80;;;2.42;;
69714;SDS011;56981;53.532;49.398;2023-11-22T10:30:12;6.82;;;3.42;;
69714;SDS011;56981;53.532;49.398;2023-11-22T10:32:41;7.55;;;3.75;;
69714;SDS011;56981;53.532;49.398;2023-11-22T10:35:08;4.35;;;2.85;;
69714;SDS011;56981;53.532;49.398;2023-11-22T10:37:35;4.90;;;3.28;;
69714;SDS011;56981;53.532;49.398;2023-11-22T10:40:01;6.60;;;3.65;;
69714;SDS011;56981;53.532;49.398;2023-11-22T10:42:30;3.63;;;2.38;;
69714;SDS011;56981;53.532;49.398;2023-11-22T10:44:57;5.40;;;3.47;;
69714;SDS011;56981;53.532;49.398;2023-11-22T10:47:26;5.45;;;3.28;;
69714;SDS011;56981;53.532;49.398;2023-11-22T10:49:56;6.45;;;3.28;;
69714;SDS011;56981;53.532;49.398;2023-11-22T10:52:22;5.22;;;2.97;;
69714;SDS011;56981;53.532;49.398;2023-11-22T10:54:55;8.60;;;3.97;;
69714;SDS011;56981;53.532;49.398;2023-11-22T10:57:31;6.10;;;3.83;;
69714;SDS011;56981;53.532;49.398;2023-11-22T11:00:00;4.15;;;3.08;;
69714;SDS011;56981;53.532;49.398;2023-11-22T11:02:32;9.68;;;3.20;;
69714;SDS011;56981;53.532;49.398;2023-11-22T11:05:23;3.58;;;1.95;;
69714;SDS011;56981;53.532;49.398;2023-11-22T11:07:54;4.40;;;2.25;;
69714;SDS011;56981;53.532;49.398;2023-11-22T11:10:31;4.47;;;2.83;;
69714;SDS011;56981;53.532;49.398;2023-11-22T11:12:58;6.10;;;3.40;;
69714;SDS011;56981;53.532;49.398;2023-11-22T11:15:25;7.53;;;3.22;;
69714;SDS011;56981;53.532;49.398;2023-11-22T11:17:54;9.25;;;3.85;;
69714;SDS011;56981;53.532;49.398;2023-11-22T11:20:22;4.90;;;2.40;;
69714;SDS011;56981;53.532;49.398;2023-11-22T11:22:49;7.53;;;2.53;;
69714;SDS011;56981;53.532;49.398;2023-11-22T11:25:15;7.80;;;3.85;;
69714;SDS011;56981;53.532;49.398;2023-11-22T11:27:45;4.32;;;1.73;;
69714;SDS011;56981;53.532;49.398;2023-11-22T11:33:14;11.10;;;4.22;;
69714;SDS011;56981;53.532;49.398;2023-11-22T11:35:43;3.90;;;2.05;;
69714;SDS011;56981;53.532;49.398;2023-11-22T11:38:16;9.77;;;2.67;;
69714;SDS011;56981;53.532;49.398;2023-11-22T11:40:47;6.40;;;3.38;;
69714;SDS011;56981;53.532;49.398;2023-11-22T11:43:14;5.82;;;3.50;;
69714;SDS011;56981;53.532;49.398;2023-11-22T11:45:42;7.05;;;3.10;;
69714;SDS011;56981;53.532;49.398;2023-11-22T11:50:40;5.68;;;3.25;;
69714;SDS011;56981;53.532;49.398;2023-11-22T11:53:06;4.97;;;2.30;;
69714;SDS011;56981;53.532;49.398;2023-11-22T11:55:33;3.55;;;2.55;;
69714;SDS011;56981;53.532;49.398;2023-11-22T11:58:06;7.70;;;3.25;;
69714;SDS011;56981;53.532;49.398;2023-11-22T12:00:36;4.55;;;2.78;;
69714;SDS011;56981;53.532;49.398;2023-11-22T12:03:08;5.63;;;3.00;;
69714;SDS011;56981;53.532;49.398;2023-11-22T12:05:37;4.07;;;2.88;;
69714;SDS011;56981;53.532;49.398;2023-11-22T12:08:04;4.07;;;2.42;;
69714;SDS011;56981;53.532;49.398;2023-11-22T12:10:31;7.53;;;2.85;;
69714;SDS011;56981;53.532;49.398;2023-11-22T12:12:57;4.90;;;2.47;;
69714;SDS011;56981;53.532;49.398;2023-11-22T12:15:24;6.10;;;3.05;;
69714;SDS011;56981;53.532;49.398;2023-11-22T12:17:50;7.75;;;3.70;;
69714;SDS011;56981;53.532;49.398;2023-11-22T12:20:19;6.35;;;3.00;;
69714;SDS011;56981;53.532;49.398;2023-11-22T12:22:47;7.93;;;3.78;;
69714;SDS011;56981;53.532;49.398;2023-11-22T12:25:14;3.85;;;2.33;;
69714;SDS011;56981;53.532;49.398;2023-11-22T12:27:44;5.25;;;3.40;;
69714;SDS011;56981;53.532;49.398;2023-11-22T12:33:09;8.95;;;3.53;;
69714;SDS011;56981;53.532;49.398;2023-11-22T12:35:36;5.80;;;3.20;;
69714;SDS011;56981;53.532;49.398;2023-11-22T12:38:04;6.60;;;3.17;;
69714;SDS011;56981;53.532;49.398;2023-11-22T12:40:32;4.40;;;2.33;;
69714;SDS011;56981;53.532;49.398;2023-11-22T12:42:58;8.00;;;3.35;;
69714;SDS011;56981;53.532;49.398;2023-11-22T12:45:26;7.22;;;2.63;;
69714;SDS011;56981;53.532;49.398;2023-11-22T12:47:54;6.53;;;3.10;;
69714;SDS011;56981;53.532;49.398;2023-11-22T12:50:37;8.70;;;3.90;;
69714;SDS011;56981;53.532;49.398;2023-11-22T12:53:14;5.30;;;3.15;;
69714;SDS011;56981;53.532;49.398;2023-11-22T12:55:44;6.90;;;4.05;;
69714;SDS011;56981;53.532;49.398;2023-11-22T12:58:13;7.18;;;3.30;;
69714;SDS011;56981;53.532;49.398;2023-11-22T13:00:44;6.95;;;3.33;;
69714;SDS011;56981;53.532;49.398;2023-11-22T13:03:11;3.35;;;1.77;;
69714;SDS011;56981;53.532;49.398;2023-11-22T13:05:38;4.95;;;3.30;;
69714;SDS011;56981;53.532;49.398;2023-11-22T13:08:06;6.97;;;3.10;;
69714;SDS011;56981;53.532;49.398;2023-11-22T13:10:32;5.63;;;2.83;;
69714;SDS011;56981;53.532;49.398;2023-11-22T13:12:58;6.15;;;3.30;;
69714;SDS011;56981;53.532;49.398;2023-11-22T13:15:26;5.82;;;2.60;;
69714;SDS011;56981;53.532;49.398;2023-11-22T13:17:52;4.28;;;2.65;;
69714;SDS011;56981;53.532;49.398;2023-11-22T13:20:22;4.53;;;3.33;;
69714;SDS011;56981;53.532;49.398;2023-11-22T13:22:49;4.70;;;2.35;;
69714;SDS011;56981;53.532;49.398;2023-11-22T13:25:16;6.40;;;3.38;;
69714;SDS011;56981;53.532;49.398;2023-11-22T13:27:45;5.43;;;2.50;;
69714;SDS011;56981;53.532;49.398;2023-11-22T13:30:16;7.20;;;3.47;;
69714;SDS011;56981;53.532;49.398;2023-11-22T13:32:51;4.55;;;2.47;;
69714;SDS011;56981;53.532;49.398;2023-11-22T13:35:19;7.50;;;3.08;;
69714;SDS011;56981;53.532;49.398;2023-11-22T13:37:47;6.53;;;3.17;;
69714;SDS011;56981;53.532;49.398;2023-11-22T13:40:15;6.65;;;3.67;;
69714;SDS011;56981;53.532;49.398;2023-11-22T13:42:45;2.88;;;2.13;;
69714;SDS011;56981;53.532;49.398;2023-11-22T13:45:14;4.25;;;2.80;;
69714;SDS011;56981;53.532;49.398;2023-11-22T13:47:43;5.28;;;3.00;;
69714;SDS011;56981;53.532;49.398;2023-11-22T13:50:16;7.50;;;3.15;;
69714;SDS011;56981;53.532;49.398;2023-11-22T13:55:14;4.38;;;2.22;;
69714;SDS011;56981;53.532;49.398;2023-11-22T13:57:43;7.63;;;3.63;;
69714;SDS011;56981;53.532;49.398;2023-11-22T14:00:09;5.00;;;2.78;;
69714;SDS011;56981;53.532;49.398;2023-11-22T14:02:38;6.25;;;2.80;;
69714;SDS011;56981;53.532;49.398;2023-11-22T14:05:08;6.60;;;3.10;;
69714;SDS011;56981;53.532;49.398;2023-11-22T14:07:34;7.45;;;4.22;;
69714;SDS011;56981;53.532;49.398;2023-11-22T14:10:01;4.57;;;2.65;;
69714;SDS011;56981;53.532;49.398;2023-11-22T14:12:29;3.45;;;1.95;;
69714;SDS011;56981;53.532;49.398;2023-11-22T14:14:56;4.07;;;2.35;;
69714;SDS011;56981;53.532;49.398;2023-11-22T14:17:23;4.53;;;2.17;;
69714;SDS011;56981;53.532;49.398;2023-11-22T14:19:50;5.18;;;3.15;;
69714;SDS011;56981;53.532;49.398;2023-11-22T14:22:16;6.45;;;2.45;;
69714;SDS011;56981;53.532;49.398;2023-11-22T14:24:43;3.58;;;2.40;;
69714;SDS011;56981;53.532;49.398;2023-11-22T14:27:11;5.68;;;2.20;;
69714;SDS011;56981;53.532;49.398;2023-11-22T14:29:37;4.78;;;2.78;;
69714;SDS011;56981;53.532;49.398;2023-11-22T14:32:06;3.97;;;2.28;;
69714;SDS011;56981;53.532;49.398;2023-11-22T14:34:32;3.85;;;2.30;;
69714;SDS011;56981;53.532;49.398;2023-11-22T14:37:01;3.40;;;2.05;;
69714;SDS011;56981;53.532;49.398;2023-11-22T14:39:27;3.05;;;1.95;;
69714;SDS011;56981;53.532;49.398;2023-11-22T14:41:55;4.55;;;1.42;;
69714;SDS011;56981;53.532;49.398;2023-11-22T14:44:22;7.10;;;2.70;;
69714;SDS011;56981;53.532;49.398;2023-11-22T14:46:48;5.63;;;1.90;;